createdAt,value
2023-03-17T00:00:01.418Z,82.2
2023-03-17T00:01:01.881Z,82
2023-03-17T00:02:01.414Z,81.7
2023-03-17T00:03:01.874Z,81.4
2023-03-17T00:04:03.061Z,80.9
2023-03-17T00:05:01.794Z,80.6
2023-03-17T00:06:02.274Z,80.4
2023-03-17T00:07:01.723Z,80.4
2023-03-17T00:08:02.307Z,80.2
2023-03-17T00:09:01.712Z,79.8
2023-03-17T00:10:03.871Z,79.6
2023-03-17T00:11:03.308Z,79.6
2023-03-17T00:12:03.784Z,79.5
2023-03-17T00:13:01.658Z,79.5
2023-03-17T00:14:03.786Z,79.3
2023-03-17T00:15:03.324Z,79.2
2023-03-17T00:16:02.234Z,79
2023-03-17T00:17:01.549Z,79
2023-03-17T00:18:02.046Z,79
2023-03-17T00:19:01.475Z,78.9
2023-03-17T00:20:02.028Z,78.8
2023-03-17T00:21:01.492Z,78.9
2023-03-17T00:22:01.952Z,78.9
2023-03-17T00:23:01.519Z,79
2023-03-17T00:24:01.979Z,79.2
2023-03-17T00:25:01.401Z,79.6
2023-03-17T00:26:01.877Z,79.8
2023-03-17T00:27:01.401Z,79.9
2023-03-17T00:28:02.838Z,80
2023-03-17T00:29:03.250Z,79.9
2023-03-17T00:30:03.711Z,79.9
2023-03-17T00:31:01.487Z,79.9
2023-03-17T00:32:02.039Z,79.9
2023-03-17T00:33:01.556Z,80.1
2023-03-17T00:34:02.021Z,80.2
2023-03-17T00:35:01.488Z,80.1
2023-03-17T00:36:02.031Z,79.9
2023-03-17T00:37:01.390Z,79.9
2023-03-17T00:38:03.544Z,79.8
2023-03-17T00:39:01.320Z,79.8
2023-03-17T00:40:02.150Z,79.8
2023-03-17T00:42:01.907Z,79.7
2023-03-17T00:43:02.294Z,79.5
2023-03-17T00:44:01.707Z,79.5
2023-03-17T00:45:02.183Z,79.6
2023-03-17T00:46:01.731Z,79.6
2023-03-17T00:47:02.316Z,79.5
2023-03-17T00:48:01.655Z,79.7
2023-03-17T00:49:02.119Z,79.9
2023-03-17T00:50:03.357Z,80.3
2023-03-17T00:51:02.116Z,80.6
2023-03-17T00:52:01.569Z,80.9
2023-03-17T00:53:02.072Z,80.7
2023-03-17T00:54:03.222Z,80.7
2023-03-17T00:55:02.029Z,80.7
2023-03-17T00:56:01.570Z,80.6
2023-03-17T00:57:02.065Z,80.6
2023-03-17T00:58:01.502Z,80.6
2023-03-17T00:59:01.996Z,80.5
2023-03-17T01:00:01.479Z,80.4
2023-03-17T01:01:02.071Z,80.5
2023-03-17T01:02:01.432Z,80.5
2023-03-17T01:03:01.867Z,80.2
2023-03-17T01:04:01.419Z,80
2023-03-17T01:05:06.762Z,80
2023-03-17T01:06:01.306Z,80
2023-03-17T01:07:03.512Z,80.1
2023-03-17T01:08:02.266Z,80.3
2023-03-17T01:09:01.724Z,80.6
2023-03-17T01:10:02.301Z,81.3
2023-03-17T01:11:01.714Z,81.5
2023-03-17T01:12:02.208Z,81.6
2023-03-17T01:13:03.343Z,81.4
2023-03-17T01:14:02.212Z,81.3
2023-03-17T01:15:01.638Z,81.1
2023-03-17T01:16:02.131Z,81.1
2023-03-17T01:17:01.628Z,80.9
2023-03-17T01:18:02.120Z,80.7
2023-03-17T01:19:01.613Z,80.4
2023-03-17T01:20:02.122Z,80.5
2023-03-17T01:21:01.564Z,81
2023-03-17T01:22:02.044Z,81
2023-03-17T01:23:01.468Z,80.5
2023-03-17T01:24:03.669Z,80.1
2023-03-17T01:25:01.480Z,80.3
2023-03-17T01:26:01.956Z,80.5
2023-03-17T01:27:01.480Z,80.5
2023-03-17T01:28:01.957Z,80.4
2023-03-17T01:29:03.172Z,80.5
2023-03-17T01:30:01.958Z,80.7
2023-03-17T01:31:01.413Z,80.9
2023-03-17T01:32:01.874Z,81
2023-03-17T01:33:01.412Z,81.2
2023-03-17T01:34:01.880Z,81.3
2023-03-17T01:35:03.012Z,80.9
2023-03-17T01:36:01.855Z,80.2
2023-03-17T01:37:02.292Z,79.8
2023-03-17T01:38:03.473Z,79.4
2023-03-17T01:39:02.282Z,79.5
2023-03-17T01:40:03.400Z,79.6
2023-03-17T01:41:03.949Z,79.6
2023-03-17T01:42:01.739Z,79.5
2023-03-17T01:43:02.204Z,79.4
2023-03-17T01:44:01.643Z,79.4
2023-03-17T01:45:02.120Z,79.5
2023-03-17T01:46:01.692Z,79.8
2023-03-17T01:47:02.152Z,80.5
2023-03-17T01:48:01.559Z,80.4
2023-03-17T01:49:02.054Z,80.5
2023-03-17T01:50:01.559Z,80.9
2023-03-17T01:51:02.044Z,80.9
2023-03-17T01:52:03.169Z,81
2023-03-17T01:53:01.968Z,81
2023-03-17T01:54:01.397Z,81.1
2023-03-17T01:55:01.891Z,81.1
2023-03-17T01:56:01.405Z,80.9
2023-03-17T01:57:03.575Z,80.8
2023-03-17T01:58:01.342Z,80.8
2023-03-17T01:59:01.820Z,80.6
2023-03-17T02:00:02.290Z,80.5
2023-03-17T02:01:01.854Z,80.3
2023-03-17T02:02:02.297Z,80.3
2023-03-17T02:03:01.747Z,80.3
2023-03-17T02:04:03.922Z,80.3
2023-03-17T02:05:01.717Z,80.4
2023-03-17T02:06:02.224Z,80.7
2023-03-17T02:07:01.648Z,80.7
2023-03-17T02:08:02.134Z,80.7
2023-03-17T02:09:01.694Z,80.8
2023-03-17T02:10:02.122Z,80.8
2023-03-17T02:11:03.245Z,80.8
2023-03-17T02:12:02.045Z,80.7
2023-03-17T02:13:01.589Z,80.7
2023-03-17T02:14:02.073Z,80.7
2023-03-17T02:15:01.473Z,80.6
2023-03-17T02:16:01.966Z,80.4
2023-03-17T02:17:03.184Z,80.2
2023-03-17T02:18:01.978Z,80.3
2023-03-17T02:19:01.428Z,80.3
2023-03-17T02:20:03.553Z,80.3
2023-03-17T02:21:01.401Z,80.3
2023-03-17T02:22:01.911Z,80.1
2023-03-17T02:23:01.375Z,79.9
2023-03-17T02:24:01.875Z,79.9
2023-03-17T02:25:01.322Z,79.9
2023-03-17T02:26:03.473Z,80.1
2023-03-17T02:27:01.325Z,80.2
2023-03-17T02:28:03.537Z,80.3
2023-03-17T02:29:02.291Z,80.4
2023-03-17T02:30:03.402Z,80.5
2023-03-17T02:31:03.954Z,80.4
2023-03-17T02:32:01.723Z,80.4
2023-03-17T02:33:02.234Z,80.3
2023-03-17T02:34:01.729Z,80.2
2023-03-17T02:35:02.157Z,80.3
2023-03-17T02:36:03.401Z,80.3
2023-03-17T02:37:02.128Z,80.4
2023-03-17T02:38:03.325Z,80.3
2023-03-17T02:39:02.073Z,80.5
2023-03-17T02:40:03.265Z,80.5
2023-03-17T02:41:02.046Z,80.3
2023-03-17T02:42:01.494Z,80.3
2023-03-17T02:43:01.959Z,80.3
2023-03-17T02:44:01.535Z,80.3
2023-03-17T02:45:01.977Z,80
2023-03-17T02:46:01.491Z,79.9
2023-03-17T02:47:03.562Z,79.6
2023-03-17T02:48:01.417Z,79.6
2023-03-17T02:49:03.545Z,79.5
2023-03-17T02:50:03.033Z,79.4
2023-03-17T02:51:01.803Z,79.1
2023-03-17T02:52:02.287Z,78.9
2023-03-17T02:53:01.724Z,78.8
2023-03-17T02:54:02.293Z,78.9
2023-03-17T02:55:03.418Z,78.9
2023-03-17T02:56:02.203Z,78.6
2023-03-17T02:57:01.637Z,78.2
2023-03-17T02:58:02.122Z,77.7
2023-03-17T02:59:03.311Z,77.4
2023-03-17T03:00:02.149Z,77.8
2023-03-17T03:01:01.740Z,77.4
2023-03-17T03:02:02.130Z,77.3
2023-03-17T03:03:01.586Z,77.3
2023-03-17T03:04:02.047Z,77
2023-03-17T03:05:01.590Z,76.7
2023-03-17T03:06:03.162Z,76.4
2023-03-17T03:07:01.477Z,76.2
2023-03-17T03:08:01.971Z,76.1
2023-03-17T03:09:01.486Z,75.9
2023-03-17T03:10:02.023Z,75.9
2023-03-17T03:11:01.405Z,75.9
2023-03-17T03:12:01.881Z,76.1
2023-03-17T03:13:01.388Z,75.9
2023-03-17T03:14:01.879Z,75.3
2023-03-17T03:15:01.343Z,75.5
2023-03-17T03:16:01.876Z,76.5
2023-03-17T03:17:02.274Z,77.3
2023-03-17T03:18:01.791Z,78
2023-03-17T03:19:02.287Z,78.2
2023-03-17T03:20:01.754Z,77.9
2023-03-17T03:21:02.279Z,77.5
2023-03-17T03:22:01.719Z,77.3
2023-03-17T03:23:02.208Z,77.2
2023-03-17T03:24:01.720Z,77.1
2023-03-17T03:25:02.225Z,77.1
2023-03-17T03:26:01.664Z,77.1
2023-03-17T03:27:02.125Z,77.2
2023-03-17T03:28:04.287Z,77.4
2023-03-17T03:29:02.043Z,77
2023-03-17T03:30:01.493Z,76
2023-03-17T03:31:01.986Z,75.6
2023-03-17T03:32:01.478Z,75.3
2023-03-17T03:33:02.040Z,75
2023-03-17T03:34:01.405Z,74.8
2023-03-17T03:35:03.589Z,74.4
2023-03-17T03:36:01.352Z,75.6
2023-03-17T03:37:01.911Z,75.9
2023-03-17T03:38:02.277Z,75.9
2023-03-17T03:39:03.481Z,76.6
2023-03-17T03:40:02.303Z,77.3
2023-03-17T03:41:01.740Z,77.8
2023-03-17T03:42:02.196Z,77.9
2023-03-17T03:43:16.134Z,77.7
2023-03-17T03:44:02.192Z,77.5
2023-03-17T03:45:01.720Z,77.1
2023-03-17T03:46:02.167Z,76.8
2023-03-17T03:47:01.649Z,76.6
2023-03-17T03:48:02.111Z,76.5
2023-03-17T03:49:03.265Z,76.7
2023-03-17T03:50:03.808Z,76.5
2023-03-17T03:51:01.562Z,76.3
2023-03-17T03:52:03.732Z,76.3
2023-03-17T03:53:01.510Z,76.5
2023-03-17T03:54:01.956Z,76.5
2023-03-17T03:55:01.524Z,76.6
2023-03-17T03:56:01.960Z,76.7
2023-03-17T03:57:01.398Z,77
2023-03-17T03:58:01.870Z,77
2023-03-17T03:59:01.402Z,76.7
2023-03-17T04:00:03.570Z,76.6
2023-03-17T04:01:02.990Z,76.5
2023-03-17T04:02:01.793Z,76.4
2023-03-17T04:03:02.300Z,76.4
2023-03-17T04:04:03.488Z,76.3
2023-03-17T04:05:02.313Z,76.2
2023-03-17T04:06:01.725Z,76.4
2023-03-17T04:07:03.873Z,76.4
2023-03-17T04:08:01.623Z,76.5
2023-03-17T04:09:02.114Z,76.6
2023-03-17T04:10:01.638Z,76.6
2023-03-17T04:11:02.137Z,76.7
2023-03-17T04:12:01.555Z,76.9
2023-03-17T04:13:03.711Z,76.8
2023-03-17T04:14:01.554Z,76.6
2023-03-17T04:15:02.037Z,77
2023-03-17T04:16:01.727Z,77.3
2023-03-17T04:17:03.630Z,77.4
2023-03-17T04:18:03.167Z,77.4
2023-03-17T04:19:02.019Z,77.7
2023-03-17T04:20:01.436Z,77.9
2023-03-17T04:21:01.882Z,77.9
2023-03-17T04:22:02.997Z,77.6
2023-03-17T04:23:01.870Z,77.5
2023-03-17T04:24:01.314Z,77.4
2023-03-17T04:25:01.791Z,77.6
2023-03-17T04:26:02.294Z,77.8
2023-03-17T04:27:05.885Z,77.6
2023-03-17T04:28:02.274Z,77.4
2023-03-17T04:29:03.386Z,77.1
2023-03-17T04:30:03.870Z,77.1
2023-03-17T04:31:01.724Z,77.6
2023-03-17T04:32:02.193Z,77.6
2023-03-17T04:33:01.665Z,77.2
2023-03-17T04:34:02.113Z,76.5
2023-03-17T04:35:01.671Z,76
2023-03-17T04:36:02.196Z,75.5
2023-03-17T04:37:01.586Z,75
2023-03-17T04:38:02.034Z,75.2
2023-03-17T04:39:01.551Z,75.4
2023-03-17T04:40:02.038Z,75.1
2023-03-17T04:41:01.509Z,75.1
2023-03-17T04:42:02.044Z,75.4
2023-03-17T04:43:03.660Z,75.8
2023-03-17T04:44:01.957Z,76.1
2023-03-17T04:45:01.474Z,76.3
2023-03-17T04:46:02.044Z,76.2
2023-03-17T04:47:03.095Z,76.2
2023-03-17T04:48:01.873Z,76.3
2023-03-17T04:49:03.008Z,76.6
2023-03-17T04:50:01.821Z,76.8
2023-03-17T04:52:03.476Z,76.5
2023-03-17T04:53:03.960Z,76.5
2023-03-17T04:54:01.807Z,76.5
2023-03-17T04:55:03.976Z,76.5
2023-03-17T04:56:01.735Z,76.4
2023-03-17T04:57:02.206Z,76.1
2023-03-17T04:58:01.627Z,75.8
2023-03-17T04:59:03.789Z,75.8
2023-03-17T05:00:01.628Z,75.7
2023-03-17T05:01:02.141Z,75.5
2023-03-17T05:02:01.661Z,75.3
2023-03-17T05:03:02.112Z,75.2
2023-03-17T05:04:01.546Z,75.2
2023-03-17T05:05:02.223Z,75.5
2023-03-17T05:06:01.577Z,75.5
2023-03-17T05:07:02.032Z,75.6
2023-03-17T05:08:01.560Z,75.8
2023-03-17T05:09:02.035Z,76
2023-03-17T05:10:01.503Z,76
2023-03-17T05:11:02.067Z,76.3
2023-03-17T05:12:03.158Z,76.5
2023-03-17T05:13:01.967Z,76.6
2023-03-17T05:14:01.468Z,76.4
2023-03-17T05:15:01.948Z,76.5
2023-03-17T05:16:01.430Z,76.5
2023-03-17T05:17:01.867Z,76.4
2023-03-17T05:18:03.307Z,76.3
2023-03-17T05:19:01.915Z,76
2023-03-17T05:20:03.007Z,75.7
2023-03-17T05:21:01.885Z,75.5
2023-03-17T05:22:01.320Z,75.7
2023-03-17T05:23:01.798Z,76.3
2023-03-17T05:24:02.315Z,76.7
2023-03-17T05:25:01.796Z,76.9
2023-03-17T05:26:02.296Z,76.9
2023-03-17T05:27:01.800Z,76.6
2023-03-17T05:28:02.269Z,76.4
2023-03-17T05:29:03.389Z,76.4
2023-03-17T05:30:02.211Z,76.4
2023-03-17T05:31:01.777Z,76.7
2023-03-17T05:32:02.220Z,77.1
2023-03-17T05:33:01.685Z,77.3
2023-03-17T05:34:02.110Z,77.7
2023-03-17T05:35:01.650Z,78.3
2023-03-17T05:36:03.767Z,78.8
2023-03-17T05:37:01.652Z,79.1
2023-03-17T05:38:02.038Z,79.4
2023-03-17T05:39:03.168Z,79.6
2023-03-17T05:40:01.956Z,79.5
2023-03-17T05:41:01.406Z,79.3
2023-03-17T05:42:01.911Z,79.1
2023-03-17T05:43:03.037Z,79
2023-03-17T05:44:01.897Z,78.3
2023-03-17T05:45:03.003Z,77.6
2023-03-17T05:46:01.838Z,77.2
2023-03-17T05:47:03.960Z,76.7
2023-03-17T05:48:01.724Z,74.5
2023-03-17T05:49:02.235Z,75.4
2023-03-17T05:50:03.322Z,75.2
2023-03-17T05:51:02.241Z,74.6
2023-03-17T05:52:01.658Z,73.4
2023-03-17T05:53:02.119Z,72.4
2023-03-17T05:54:03.265Z,72.7
2023-03-17T05:55:02.041Z,72.2
2023-03-17T05:56:01.565Z,71.6
2023-03-17T05:57:02.048Z,70.6
2023-03-17T05:58:03.150Z,69.5
2023-03-17T05:59:03.659Z,69.7
2023-03-17T06:00:01.406Z,70.4
2023-03-17T06:01:01.879Z,72.1
2023-03-17T06:02:01.439Z,71.9
2023-03-17T06:03:01.877Z,71.9
2023-03-17T06:04:01.326Z,70.9
2023-03-17T06:05:01.837Z,72.3
2023-03-17T06:07:01.809Z,73.5
2023-03-17T06:08:02.317Z,72.9
2023-03-17T06:09:01.722Z,72.6
2023-03-17T06:10:02.251Z,73.1
2023-03-17T06:11:01.727Z,73.7
2023-03-17T06:12:02.217Z,74.5
2023-03-17T06:13:03.750Z,75.6
2023-03-17T06:14:02.119Z,76
2023-03-17T06:15:01.642Z,75.7
2023-03-17T06:16:02.158Z,75.5
2023-03-17T06:17:01.648Z,75.5
2023-03-17T06:18:02.120Z,75.8
2023-03-17T06:19:01.561Z,75.8
2023-03-17T06:20:02.041Z,75.9
2023-03-17T06:21:01.574Z,75.7
2023-03-17T06:22:02.056Z,75.5
2023-03-17T06:23:04.900Z,75.4
2023-03-17T06:24:01.962Z,75
2023-03-17T06:25:01.502Z,74.7
2023-03-17T06:26:01.956Z,74.5
2023-03-17T06:27:01.443Z,73.8
2023-03-17T06:28:01.881Z,73.5
2023-03-17T06:29:01.320Z,73.4
2023-03-17T06:30:01.810Z,73.5
2023-03-17T06:31:03.663Z,72.5
2023-03-17T06:32:18.836Z,73.7
2023-03-17T06:33:02.391Z,73.7
2023-03-17T06:34:01.722Z,73.1
2023-03-17T06:35:02.217Z,73
2023-03-17T06:36:01.824Z,72.4
2023-03-17T06:37:02.241Z,71.3
2023-03-17T06:38:01.640Z,71.9
2023-03-17T06:39:02.120Z,71.4
2023-03-17T06:40:01.646Z,71.4
2023-03-17T06:41:02.149Z,71.7
2023-03-17T06:42:01.552Z,71.6
2023-03-17T06:43:02.045Z,71.3
2023-03-17T06:44:03.262Z,71.2
2023-03-17T06:45:02.056Z,70.9
2023-03-17T06:46:03.196Z,69.6
2023-03-17T06:47:01.957Z,70.3
2023-03-17T06:48:01.488Z,69.9
2023-03-17T06:49:01.970Z,70.1
2023-03-17T06:50:01.431Z,69.4
2023-03-17T06:51:01.875Z,70
2023-03-17T06:52:01.428Z,68
2023-03-17T06:53:01.897Z,67.5
2023-03-17T06:54:01.392Z,67.7
2023-03-17T06:55:01.876Z,67.6
2023-03-17T06:56:03.007Z,67.8
2023-03-17T06:57:01.829Z,66.9
2023-03-17T06:58:02.271Z,66.7
2023-03-17T06:59:03.481Z,64.7
2023-03-17T07:00:03.975Z,64.7
2023-03-17T07:01:01.717Z,64.5
2023-03-17T07:02:02.295Z,63.7
2023-03-17T07:03:01.638Z,63.5
2023-03-17T07:04:02.117Z,64.1
2023-03-17T07:05:01.776Z,63.3
2023-03-17T07:06:02.120Z,64.2
2023-03-17T07:07:01.573Z,64.7
2023-03-17T07:08:02.116Z,64.7
2023-03-17T07:09:02.340Z,64.7
2023-03-17T07:10:02.040Z,62.8
2023-03-17T07:11:03.241Z,66
2023-03-17T07:12:02.077Z,64.5
2023-03-17T07:13:01.486Z,65.3
2023-03-17T07:14:01.971Z,63.7
2023-03-17T07:15:03.067Z,63.9
2023-03-17T07:16:03.675Z,61.9
2023-03-17T07:17:01.421Z,62.8
2023-03-17T07:18:03.587Z,64.2
2023-03-17T07:19:03.081Z,62.5
2023-03-17T07:20:01.871Z,64.8
2023-03-17T07:21:03.003Z,65.1
2023-03-17T07:22:01.793Z,65.1
2023-03-17T07:23:03.982Z,65.6
2023-03-17T07:24:01.796Z,64.7
2023-03-17T07:25:03.278Z,64.1
2023-03-17T07:26:01.956Z,64.7
2023-03-17T07:27:01.508Z,64.7
2023-03-17T07:28:01.976Z,66.3
2023-03-17T07:29:01.440Z,66.9
2023-03-17T07:30:03.538Z,67.5
2023-03-17T07:31:01.384Z,66.9
2023-03-17T07:32:01.791Z,66.3
2023-03-17T07:34:01.823Z,66
2023-03-17T07:35:02.352Z,65.3
2023-03-17T07:36:03.564Z,65.2
2023-03-17T07:37:02.194Z,65.7
2023-03-17T07:38:01.708Z,65.8
2023-03-17T07:39:03.877Z,65.6
2023-03-17T07:40:01.733Z,65.9
2023-03-17T07:41:02.216Z,65.6
2023-03-17T07:42:01.668Z,66.6
2023-03-17T07:43:03.790Z,66.5
2023-03-17T07:44:01.551Z,65.8
2023-03-17T07:45:02.041Z,67.5
2023-03-17T07:46:01.614Z,66.5
2023-03-17T07:47:02.106Z,66.4
2023-03-17T07:48:01.502Z,66.4
2023-03-17T07:49:01.970Z,65.2
2023-03-17T07:50:01.473Z,65.6
2023-03-17T07:51:03.674Z,66.2
2023-03-17T07:52:03.081Z,67.4
2023-03-17T07:53:03.572Z,65
2023-03-17T07:54:01.309Z,65.4
2023-03-17T07:55:01.882Z,64.7
2023-03-17T07:56:02.989Z,64.5
2023-03-17T07:57:01.809Z,63.9
2023-03-17T07:58:02.342Z,63.6
2023-03-17T07:59:01.754Z,65.4
2023-03-17T08:00:02.194Z,64.8
2023-03-17T08:01:03.427Z,65
2023-03-17T08:02:02.254Z,66.3
2023-03-17T08:03:09.741Z,65.8
2023-03-17T08:04:02.204Z,64.5
2023-03-17T08:05:01.661Z,64.4
2023-03-17T08:06:03.797Z,64.4
2023-03-17T08:07:01.581Z,65.9
2023-03-17T08:08:02.153Z,63.3
2023-03-17T08:09:01.556Z,63.1
2023-03-17T08:10:02.033Z,62.4
2023-03-17T08:11:01.474Z,63.1
2023-03-17T08:12:01.976Z,62.4
2023-03-17T08:13:01.512Z,63
2023-03-17T08:14:01.952Z,61.9
2023-03-17T08:15:01.395Z,62.8
2023-03-17T08:16:01.892Z,63.2
2023-03-17T08:17:01.424Z,62.7
2023-03-17T08:18:01.938Z,62.6
2023-03-17T08:19:03.015Z,61.3
2023-03-17T08:20:01.806Z,61.5
2023-03-17T08:21:02.298Z,61.3
2023-03-17T08:22:01.888Z,60.3
2023-03-17T08:23:02.304Z,57.9
2023-03-17T08:24:04.332Z,56.5
2023-03-17T08:25:02.052Z,56.4
2023-03-17T08:26:01.557Z,57.1
2023-03-17T08:27:03.727Z,58.2
2023-03-17T08:28:01.544Z,58.5
2023-03-17T08:29:03.643Z,56.2
2023-03-17T08:30:01.514Z,57.7
2023-03-17T08:31:03.670Z,58.2
2023-03-17T08:32:01.414Z,58.4
2023-03-17T08:33:03.626Z,57.9
2023-03-17T08:34:01.388Z,59.9
2023-03-17T08:35:03.472Z,60.2
2023-03-17T08:36:01.328Z,58
2023-03-17T08:37:01.797Z,56.7
2023-03-17T08:38:03.999Z,58.5
2023-03-17T08:39:01.794Z,57.9
2023-03-17T08:40:02.275Z,58.3
2023-03-17T08:41:01.720Z,57.3
2023-03-17T08:42:03.867Z,58.5
2023-03-17T08:43:01.734Z,56.4
2023-03-17T08:44:03.901Z,56.3
2023-03-17T08:45:01.647Z,56.6
2023-03-17T08:46:03.845Z,58.4
2023-03-17T08:47:03.226Z,59.7
2023-03-17T08:48:02.041Z,56
2023-03-17T08:49:01.556Z,55.8
2023-03-17T08:50:02.072Z,57
2023-03-17T08:51:01.473Z,57.2
2023-03-17T08:52:01.974Z,55.7
2023-03-17T08:53:01.473Z,54.9
2023-03-17T08:54:01.974Z,55.5
2023-03-17T08:55:01.413Z,55.6
2023-03-17T08:56:01.877Z,56
2023-03-17T08:57:03.073Z,55.6
2023-03-17T08:58:01.880Z,58.1
2023-03-17T08:59:01.315Z,56.9
2023-03-17T09:00:03.503Z,57.5
2023-03-17T09:01:02.317Z,56.4
2023-03-17T09:02:01.809Z,59.2
2023-03-17T09:03:02.368Z,59.6
2023-03-17T09:04:01.799Z,58
2023-03-17T09:05:02.277Z,58.7
2023-03-17T09:06:01.728Z,55.9
2023-03-17T09:07:04.435Z,56.8
2023-03-17T09:08:01.790Z,57.2
2023-03-17T09:09:03.895Z,59.3
2023-03-17T09:10:03.395Z,55.8
2023-03-17T09:11:03.800Z,54.6
2023-03-17T09:12:01.631Z,55.5
2023-03-17T09:13:02.119Z,54.4
2023-03-17T09:14:03.272Z,54.6
2023-03-17T09:15:02.049Z,54.8
2023-03-17T09:16:01.609Z,56.3
2023-03-17T09:17:03.498Z,56.5
2023-03-17T09:18:01.487Z,56.1
2023-03-17T09:19:03.670Z,56.1
2023-03-17T09:20:01.490Z,56
2023-03-17T09:21:01.976Z,56
2023-03-17T09:22:01.402Z,55.6
2023-03-17T09:23:01.877Z,53.5
2023-03-17T09:24:02.571Z,52.7
2023-03-17T09:25:02.191Z,54.8
2023-03-17T09:26:01.665Z,54.7
2023-03-17T09:27:02.272Z,52.3
2023-03-17T09:28:01.638Z,56.7
2023-03-17T09:29:04.701Z,55.7
2023-03-17T09:30:01.557Z,53.9
2023-03-17T09:31:03.759Z,55.7
2023-03-17T09:32:01.613Z,53.3
2023-03-17T09:33:02.139Z,52.4
2023-03-17T09:34:03.144Z,52.7
2023-03-17T09:35:01.964Z,51.1
2023-03-17T09:36:01.523Z,54.3
2023-03-17T09:37:01.949Z,55.3
2023-03-17T09:38:01.399Z,53.5
2023-03-17T09:39:01.890Z,54.2
2023-03-17T09:40:02.987Z,53.6
2023-03-17T09:41:01.878Z,53
2023-03-17T09:42:01.313Z,52
2023-03-17T09:43:01.793Z,49.9
2023-03-17T09:44:02.289Z,49.5
2023-03-17T09:45:01.833Z,52.8
2023-03-17T09:46:02.282Z,50
2023-03-17T09:47:03.397Z,50.7
2023-03-17T09:48:02.191Z,50
2023-03-17T09:49:03.313Z,49.8
2023-03-17T09:50:02.132Z,52.6
2023-03-17T09:51:01.648Z,53
2023-03-17T09:52:03.796Z,53.3
2023-03-17T09:53:03.956Z,53
2023-03-17T09:54:03.808Z,50.2
2023-03-17T09:55:01.577Z,51.2
2023-03-17T09:56:02.068Z,51.2
2023-03-17T09:57:03.180Z,50.5
2023-03-17T09:58:01.973Z,50.9
2023-03-17T09:59:01.493Z,51.9
2023-03-17T10:00:03.789Z,54.7
2023-03-17T10:01:01.494Z,55.8
2023-03-17T10:02:01.910Z,51.6
2023-03-17T10:03:01.406Z,54.6
2023-03-17T10:04:03.556Z,53.6
2023-03-17T10:05:03.138Z,53.6
2023-03-17T10:06:01.798Z,55.5
2023-03-17T10:08:03.475Z,52.8
2023-03-17T10:09:02.273Z,52.5
2023-03-17T10:10:01.800Z,53
2023-03-17T10:11:02.291Z,52.2
2023-03-17T10:12:01.721Z,51.1
2023-03-17T10:13:02.190Z,50.3
2023-03-17T10:14:01.715Z,49
2023-03-17T10:15:02.197Z,50.8
2023-03-17T10:16:01.736Z,50.2
2023-03-17T10:17:02.114Z,52.6
2023-03-17T10:18:01.660Z,50.7
2023-03-17T10:19:03.797Z,50.7
2023-03-17T10:20:01.720Z,49
2023-03-17T10:21:03.742Z,51.4
2023-03-17T10:22:01.572Z,50.6
2023-03-17T10:23:02.037Z,49.4
2023-03-17T10:24:01.566Z,50.4
2023-03-17T10:25:03.717Z,49.3
2023-03-17T10:26:01.488Z,51.5
2023-03-17T10:27:01.993Z,50
2023-03-17T10:28:01.412Z,52.3
2023-03-17T10:29:01.876Z,51.3
2023-03-17T10:30:01.400Z,50.3
2023-03-17T10:31:03.569Z,50.6
2023-03-17T10:32:03.143Z,51.3
2023-03-17T10:33:03.583Z,52.1
2023-03-17T10:34:02.273Z,51.5
2023-03-17T10:35:01.808Z,52.5
2023-03-17T10:36:02.313Z,50.6
2023-03-17T10:37:03.431Z,49.7
2023-03-17T10:38:14.133Z,50.9
2023-03-17T10:39:01.642Z,52.2
2023-03-17T10:40:02.108Z,51.5
2023-03-17T10:41:01.635Z,50.4
2023-03-17T10:42:02.120Z,49.9
2023-03-17T10:43:01.569Z,51
2023-03-17T10:44:02.047Z,50.1
2023-03-17T10:45:01.587Z,49.2
2023-03-17T10:46:02.044Z,50.2
2023-03-17T10:47:01.681Z,49.9
2023-03-17T10:48:02.040Z,49.4
2023-03-17T10:49:01.515Z,51.1
2023-03-17T10:50:01.972Z,48.7
2023-03-17T10:51:01.480Z,48.5
2023-03-17T10:52:03.553Z,49.5
2023-03-17T10:53:01.420Z,49.6
2023-03-17T10:54:01.888Z,48.9
2023-03-17T10:55:01.429Z,48.7
2023-03-17T10:56:01.892Z,49.2
2023-03-17T10:57:03.022Z,50.2
2023-03-17T10:58:01.794Z,48.2
2023-03-17T10:59:02.297Z,48.2
2023-03-17T11:00:01.820Z,47.8
2023-03-17T11:01:02.395Z,47.3
2023-03-17T11:02:01.761Z,48.2
2023-03-17T11:03:03.889Z,49
2023-03-17T11:04:03.355Z,47.4
2023-03-17T11:05:02.200Z,49
2023-03-17T11:06:03.327Z,50.2
2023-03-17T11:07:02.145Z,48.4
2023-03-17T11:08:01.653Z,50.8
2023-03-17T11:09:02.130Z,48.2
2023-03-17T11:10:03.242Z,49.9
2023-03-17T11:11:02.039Z,46.7
2023-03-17T11:12:03.241Z,46.5
2023-03-17T11:13:03.711Z,50.8
2023-03-17T11:14:01.504Z,48.3
2023-03-17T11:15:01.980Z,50.4
2023-03-17T11:16:01.531Z,49.3
2023-03-17T11:17:01.948Z,50.3
2023-03-17T11:18:01.429Z,49.8
2023-03-17T11:19:01.878Z,49
2023-03-17T11:20:01.406Z,48
2023-03-17T11:21:01.885Z,48.8
2023-03-17T11:22:02.338Z,49.6
2023-03-17T11:23:02.215Z,51.7
2023-03-17T11:24:01.563Z,50.3
2023-03-17T11:25:02.041Z,47.5
2023-03-17T11:26:01.482Z,49.5
2023-03-17T11:27:02.051Z,53.3
2023-03-17T11:28:03.175Z,50.1
2023-03-17T11:29:01.959Z,49.1
2023-03-17T11:30:03.083Z,53.9
2023-03-17T11:31:01.902Z,49.1
2023-03-17T11:32:01.528Z,47.3
2023-03-17T11:33:03.557Z,47.4
2023-03-17T11:35:01.817Z,46.5
2023-03-17T11:36:02.347Z,50.2
2023-03-17T11:37:01.793Z,48.9
2023-03-17T11:38:02.280Z,50.3
2023-03-17T11:39:01.749Z,50.7
2023-03-17T11:40:02.212Z,49.4
2023-03-17T11:41:01.749Z,47.5
2023-03-17T11:42:02.146Z,49.4
2023-03-17T11:43:01.648Z,49.1
2023-03-17T11:44:02.134Z,48.5
2023-03-17T11:45:01.643Z,49.5
2023-03-17T11:46:02.157Z,49.2
2023-03-17T11:47:03.240Z,47.5
2023-03-17T11:48:02.048Z,49.2
2023-03-17T11:49:01.508Z,47.1
2023-03-17T11:50:01.979Z,50.3
2023-03-17T11:51:03.171Z,51.2
2023-03-17T11:52:03.630Z,46.1
2023-03-17T11:53:01.416Z,47
2023-03-17T11:54:01.886Z,48.2
2023-03-17T11:55:01.427Z,47.5
2023-03-17T11:56:01.876Z,48.6
2023-03-17T11:57:02.993Z,50.7
2023-03-17T11:58:01.791Z,49.3
2023-03-17T11:59:02.285Z,47.1
2023-03-17T12:00:01.808Z,46.5
2023-03-17T12:01:02.280Z,49.5
2023-03-17T12:02:03.390Z,47.6
2023-03-17T12:03:02.237Z,49.8
2023-03-17T12:04:01.912Z,51.5
2023-03-17T12:05:02.231Z,50.5
2023-03-17T12:06:01.638Z,52.1
2023-03-17T12:07:03.795Z,49.4
2023-03-17T12:08:01.561Z,50.1
2023-03-17T12:09:02.040Z,51.5
2023-03-17T12:10:01.584Z,48.9
2023-03-17T12:11:03.709Z,47.8
2023-03-17T12:12:01.477Z,48.8
2023-03-17T12:13:01.960Z,46.6
2023-03-17T12:14:01.522Z,47.9
2023-03-17T12:15:03.667Z,47.9
2023-03-17T12:16:01.436Z,49.2
2023-03-17T12:17:01.953Z,47
2023-03-17T12:18:01.392Z,47.2
2023-03-17T12:19:01.902Z,47.6
2023-03-17T12:20:03.080Z,49.8
2023-03-17T12:21:01.854Z,50.5
2023-03-17T12:22:03.220Z,50.1
2023-03-17T12:23:01.952Z,49
2023-03-17T12:24:01.469Z,51.5
2023-03-17T12:25:03.542Z,49.8
2023-03-17T12:26:01.403Z,46.8
2023-03-17T12:27:01.896Z,46.2
2023-03-17T12:28:01.391Z,47.7
2023-03-17T12:29:01.875Z,47.6
2023-03-17T12:30:01.327Z,48.9
2023-03-17T12:31:01.838Z,48.1
2023-03-17T12:32:03.977Z,47
2023-03-17T12:33:01.869Z,48.6
2023-03-17T12:34:02.266Z,48.2
2023-03-17T12:35:01.709Z,48.9
2023-03-17T12:36:02.221Z,50.2
2023-03-17T12:37:01.748Z,47.2
2023-03-17T12:38:02.193Z,47.1
2023-03-17T12:39:01.721Z,50.9
2023-03-17T12:40:02.100Z,49.4
2023-03-17T12:41:01.643Z,49.6
2023-03-17T12:42:02.133Z,47.5
2023-03-17T12:43:03.244Z,46.2
2023-03-17T12:44:03.707Z,45.7
2023-03-17T12:45:01.556Z,50.3
2023-03-17T12:46:02.103Z,47
2023-03-17T12:47:03.182Z,45.3
2023-03-17T12:48:03.642Z,47.2
2023-03-17T12:49:01.500Z,47.9
2023-03-17T12:50:01.958Z,46
2023-03-17T12:51:01.394Z,46.1
2023-03-17T12:52:01.869Z,49.1
2023-03-17T12:53:01.430Z,46.8
2023-03-17T12:54:03.563Z,46.7
2023-03-17T12:55:03.013Z,46.6
2023-03-17T12:56:01.795Z,47.5
2023-03-17T12:57:03.977Z,45.7
2023-03-17T12:58:01.795Z,48.4
2023-03-17T12:59:03.952Z,47.1
2023-03-17T13:00:01.712Z,47.8
2023-03-17T13:01:02.213Z,47.9
2023-03-17T13:02:03.436Z,46.1
2023-03-17T13:03:02.219Z,45.9
2023-03-17T13:04:01.667Z,46.2
2023-03-17T13:05:02.191Z,47.8
2023-03-17T13:06:03.347Z,49.6
2023-03-17T13:07:02.100Z,48.8
2023-03-17T13:08:01.579Z,47.3
2023-03-17T13:09:02.032Z,49.3
2023-03-17T13:10:01.573Z,48
2023-03-17T13:11:02.025Z,48.1
2023-03-17T13:12:01.498Z,47.6
2023-03-17T13:13:01.951Z,45.8
2023-03-17T13:14:03.149Z,47.8
2023-03-17T13:15:02.046Z,47
2023-03-17T13:16:01.428Z,45.5
2023-03-17T13:17:01.886Z,45.7
2023-03-17T13:18:03.077Z,47.9
2023-03-17T13:19:01.881Z,48.7
2023-03-17T13:20:01.326Z,50.4
2023-03-17T13:21:02.715Z,49.9
2023-03-17T13:22:01.473Z,46.7
2023-03-17T13:23:01.972Z,48.4
2023-03-17T13:24:01.407Z,49.9
2023-03-17T13:25:01.871Z,48.2
2023-03-17T13:26:01.389Z,48.9
2023-03-17T13:27:01.934Z,47.5
2023-03-17T13:28:01.331Z,49.9
2023-03-17T13:29:03.484Z,50.5